Time;durP1;ratioP1;P1;durP2;ratioP2;P2;SDS_P1;SDS_P2;PMS_P1;PMS_P2;Temp;Humidity;BMP_temperature;BMP_pressure;BME280_temperature;BME280_humidity;BME280_pressure;Samples;Min_cycle;Max_cycle;Signal;HPM_P1;HPM_P2
2023/04/18 00:02:16;;;;;;;5.50;3.03;;;;;;;5.80;42.46;103012.78;5028567;28;20136;-70
2023/04/18 00:04:45;;;;;;;4.65;2.88;;;;;;;5.91;42.26;103005.16;5025456;28;20048;-71
2023/04/18 00:07:14;;;;;;;6.15;3.35;;;;;;;5.79;42.79;103011.03;5028954;28;20041;-70
2023/04/18 00:09:40;;;;;;;6.88;3.40;;;;;;;5.48;43.35;103010.59;5025725;28;20124;-70
2023/04/18 00:12:06;;;;;;;5.63;2.63;;;;;;;5.70;42.75;103005.69;5030487;28;20480;-70
2023/04/18 00:14:33;;;;;;;4.82;3.40;;;;;;;5.62;42.99;103014.25;5024083;28;20043;-71
2023/04/18 00:17:01;;;;;;;3.92;2.67;;;;;;;5.52;43.21;103012.34;5028945;28;20043;-71
2023/04/18 00:19:26;;;;;;;6.93;3.22;;;;;;;5.65;42.83;103014.28;5026038;28;20045;-71
2023/04/18 00:21:52;;;;;;;6.25;3.55;;;;;;;5.88;42.44;103011.16;5026046;28;20029;-70
2023/04/18 00:24:18;;;;;;;8.40;2.95;;;;;;;5.97;42.53;103016.50;5045233;28;20509;-70
2023/04/18 00:26:44;;;;;;;9.82;3.85;;;;;;;5.96;42.39;103009.53;5032128;28;20068;-71
2023/04/18 00:29:09;;;;;;;6.47;3.05;;;;;;;5.95;42.50;103010.41;5034798;28;20164;-71
2023/04/18 00:31:35;;;;;;;4.72;3.15;;;;;;;5.97;42.33;103015.59;5028730;28;20591;-70
2023/04/18 00:34:00;;;;;;;5.43;3.17;;;;;;;5.98;42.27;103015.63;5032332;28;20451;-70
2023/04/18 00:36:26;;;;;;;6.95;3.38;;;;;;;5.97;42.58;103015.59;5029873;28;20555;-71
2023/04/18 00:38:52;;;;;;;5.28;3.53;;;;;;;5.97;42.41;103011.31;5028171;28;20061;-70
2023/04/18 00:41:20;;;;;;;7.25;3.92;;;;;;;6.09;42.38;103010.59;5030249;28;20143;-71
2023/04/18 00:43:46;;;;;;;6.15;3.22;;;;;;;6.12;42.25;103013.19;5029427;28;20437;-70
2023/04/18 00:46:11;;;;;;;6.68;3.60;;;;;;;6.04;43.02;103007.94;5033050;28;20512;-70
2023/04/18 00:48:38;;;;;;;6.53;3.33;;;;;;;5.96;42.83;103004.34;5024794;28;20049;-70
2023/04/18 00:51:05;;;;;;;4.80;3.33;;;;;;;6.13;42.90;103006.28;5033612;28;20036;-70
2023/04/18 00:53:31;;;;;;;8.88;3.55;;;;;;;6.20;42.70;103014.19;5026716;28;20127;-70
2023/04/18 00:55:56;;;;;;;5.88;3.03;;;;;;;6.21;42.67;102999.47;5029887;28;20035;-71
2023/04/18 00:58:23;;;;;;;6.13;2.78;;;;;;;6.20;42.81;103005.53;5029636;28;20497;-70
2023/04/18 01:00:50;;;;;;;6.93;3.85;;;;;;;6.09;43.10;103006.25;5029268;28;20444;-71
2023/04/18 01:03:17;;;;;;;5.10;3.35;;;;;;;6.09;42.79;103001.06;5028286;28;20033;-70
2023/04/18 01:05:43;;;;;;;5.32;2.78;;;;;;;6.26;42.86;103002.97;5030359;28;20428;-71
2023/04/18 01:08:09;;;;;;;7.80;3.95;;;;;;;6.11;42.86;103000.22;5024684;28;20107;-71
2023/04/18 01:10:35;;;;;;;5.10;3.00;;;;;;;6.14;42.77;103002.84;5023860;28;20534;-70
2023/04/18 01:13:15;;;;;;;5.32;2.95;;;;;;;6.24;42.77;103000.38;5013949;28;20398;-71
2023/04/18 01:15:45;;;;;;;5.38;3.50;;;;;;;6.18;42.61;102995.13;5027775;28;20060;-71
2023/04/18 01:18:12;;;;;;;4.65;3.15;;;;;;;6.16;42.84;103001.16;5023065;28;20043;-70
2023/04/18 01:20:40;;;;;;;5.72;3.63;;;;;;;6.17;42.46;103002.88;5027512;28;20476;-69
2023/04/18 01:23:11;;;;;;;5.45;2.88;;;;;;;6.32;42.56;103003.09;5016473;28;20116;-71
2023/04/18 01:25:37;;;;;;;5.35;2.55;;;;;;;6.25;42.48;102998.66;5005458;28;20061;-71
2023/04/18 01:28:04;;;;;;;5.97;2.47;;;;;;;6.31;42.61;102997.88;4996636;28;20395;-70
2023/04/18 01:30:30;;;;;;;6.30;3.10;;;;;;;6.31;42.43;103006.56;4992159;28;20076;-70
2023/04/18 01:32:57;;;;;;;8.10;3.03;;;;;;;6.24;42.64;102989.13;5012227;28;20402;-70
2023/04/18 01:35:25;;;;;;;7.90;2.97;;;;;;;6.32;42.17;102995.31;5004916;28;20049;-71
2023/04/18 01:37:55;;;;;;;4.97;3.22;;;;;;;6.29;42.59;102995.28;5012115;28;20026;-70
2023/04/18 01:40:20;;;;;;;7.00;2.45;;;;;;;6.20;42.85;102992.53;4987909;28;20414;-70
2023/04/18 01:42:46;;;;;;;4.38;2.50;;;;;;;6.24;42.67;102990.00;5010795;28;20091;-71
2023/04/18 01:45:12;;;;;;;4.57;2.88;;;;;;;6.31;42.58;102990.97;5009752;28;20579;-70
2023/04/18 01:47:39;;;;;;;3.63;3.25;;;;;;;6.32;42.80;102997.03;5019881;28;20083;-71
2023/04/18 01:50:05;;;;;;;6.78;3.25;;;;;;;6.28;43.17;102996.13;5012201;28;20045;-70
2023/04/18 01:52:30;;;;;;;6.88;3.00;;;;;;;6.33;43.02;102991.88;5003616;28;20234;-71
2023/04/18 01:54:56;;;;;;;7.60;3.30;;;;;;;6.26;43.37;102987.41;5008361;28;20498;-69
2023/04/18 01:57:21;;;;;;;5.15;3.47;;;;;;;6.27;43.33;102994.34;5008540;28;20040;-71
2023/04/18 01:59:48;;;;;;;6.55;3.70;;;;;;;6.24;43.39;102994.34;5009731;28;20033;-71
2023/04/18 02:02:13;;;;;;;10.57;3.88;;;;;;;6.20;43.65;102996.00;5011928;28;20560;-71
2023/04/18 02:04:39;;;;;;;6.28;3.72;;;;;;;6.32;43.11;103000.50;5002922;28;20045;-71
2023/04/18 02:07:04;;;;;;;6.57;4.40;;;;;;;6.37;43.46;103003.16;4995788;28;20052;-71
2023/04/18 02:09:30;;;;;;;5.30;3.20;;;;;;;6.36;43.09;102996.22;5008512;28;20041;-70
2023/04/18 02:11:58;;;;;;;7.43;3.90;;;;;;;6.39;42.92;102999.72;5007407;28;20060;-70
2023/04/18 02:14:28;;;;;;;8.50;3.90;;;;;;;6.28;43.27;102996.13;5007084;28;20041;-70
2023/04/18 02:16:54;;;;;;;6.30;3.88;;;;;;;6.26;43.53;102997.78;5011018;28;20037;-70
2023/04/18 02:19:20;;;;;;;7.20;4.10;;;;;;;6.22;43.57;102999.50;5024121;28;20041;-70
2023/04/18 02:21:45;;;;;;;7.85;4.25;;;;;;;6.05;43.69;102999.28;5006758;28;20599;-70
2023/04/18 02:24:10;;;;;;;8.10;4.40;;;;;;;6.08;43.85;102994.13;5009361;28;20116;-71
2023/04/18 02:26:36;;;;;;;7.57;4.03;;;;;;;6.06;43.93;102995.84;5001889;28;20034;-70
2023/04/18 02:29:01;;;;;;;8.00;4.45;;;;;;;6.02;43.56;102998.38;5010043;28;20041;-71
2023/04/18 02:31:30;;;;;;;6.63;4.22;;;;;;;5.91;44.47;102995.63;4990682;28;20030;-70
2023/04/18 02:33:56;;;;;;;10.45;3.92;;;;;;;5.88;44.62;103005.94;5006435;28;20041;-70
2023/04/18 02:36:22;;;;;;;6.55;4.38;;;;;;;5.87;44.16;102993.84;5010001;28;20087;-71
2023/04/18 02:38:47;;;;;;;7.38;3.97;;;;;;;5.82;44.49;103005.91;5005974;28;20109;-71
2023/04/18 02:41:16;;;;;;;7.22;4.60;;;;;;;5.81;44.73;102999.81;5011448;28;20327;-70
2023/04/18 02:43:41;;;;;;;8.18;4.22;;;;;;;5.75;44.69;102998.84;4990578;28;20095;-71
2023/04/18 02:46:07;;;;;;;9.13;5.10;;;;;;;5.83;44.63;103000.69;5011109;28;20239;-71
2023/04/18 02:48:33;;;;;;;7.22;4.03;;;;;;;5.70;44.75;103000.50;5001698;28;20037;-70
2023/04/18 02:51:03;;;;;;;7.70;4.40;;;;;;;5.74;44.84;103007.50;5011237;28;20040;-71
2023/04/18 02:53:30;;;;;;;9.45;4.10;;;;;;;5.74;44.63;103007.50;5003771;28;21103;-71
2023/04/18 02:55:55;;;;;;;6.80;3.88;;;;;;;5.66;44.90;103007.41;4993706;28;20239;-70
2023/04/18 02:58:26;;;;;;;6.45;4.10;;;;;;;5.64;44.82;103009.97;4989723;28;20490;-71
2023/04/18 03:01:08;;;;;;;8.35;4.07;;;;;;;5.64;44.83;103009.97;4999492;28;20021;-71
2023/04/18 03:03:46;;;;;;;7.13;4.53;;;;;;;5.69;44.69;103004.84;5004473;28;20041;-71
2023/04/18 03:06:31;;;;;;;7.85;3.78;;;;;;;5.63;45.37;103010.78;5005468;28;20560;-70
2023/04/18 03:08:59;;;;;;;8.63;4.03;;;;;;;5.59;44.76;103008.13;5007989;28;20136;-70
2023/04/18 03:11:25;;;;;;;5.47;3.63;;;;;;;5.50;45.15;103008.84;5007711;28;20521;-70
2023/04/18 03:13:52;;;;;;;4.00;3.60;;;;;;;5.53;44.86;103008.06;5012890;28;20043;-70
2023/04/18 03:16:19;;;;;;;5.05;3.72;;;;;;;5.32;45.65;103003.41;5013791;28;20389;-70
2023/04/18 03:18:45;;;;;;;8.43;3.78;;;;;;;5.40;45.33;103007.00;5024824;28;20025;-70
2023/04/18 03:21:10;;;;;;;8.40;4.47;;;;;;;5.52;44.83;103011.50;5014831;28;20028;-71
2023/04/18 03:23:36;;;;;;;7.38;4.18;;;;;;;5.37;45.54;103015.59;5020468;28;20033;-71
2023/04/18 03:26:08;;;;;;;6.32;4.38;;;;;;;5.43;45.11;103009.63;5047026;28;20044;-71
2023/04/18 03:28:36;;;;;;;9.20;5.15;;;;;;;5.61;44.84;103020.31;5036120;28;20040;-71
2023/04/18 03:31:02;;;;;;;7.45;4.85;;;;;;;5.43;44.60;103017.41;5030320;28;20466;-70
2023/04/18 03:33:29;;;;;;;11.52;5.38;;;;;;;5.47;44.45;103014.00;5020900;28;20090;-70
2023/04/18 03:36:04;;;;;;;10.00;4.57;;;;;;;5.35;44.09;103016.44;5030620;28;20033;-71
2023/04/18 03:38:30;;;;;;;7.25;4.57;;;;;;;5.45;42.99;103019.16;5008962;28;20042;-70
2023/04/18 03:40:56;;;;;;;9.05;5.13;;;;;;;5.53;42.68;103018.44;5027679;28;20031;-71
2023/04/18 03:43:30;;;;;;;7.50;5.03;;;;;;;5.56;43.05;103014.16;5024233;28;20098;-70
2023/04/18 03:45:55;;;;;;;10.52;5.35;;;;;;;5.46;42.82;103020.06;5008481;28;20038;-71
2023/04/18 03:48:21;;;;;;;10.00;5.03;;;;;;;5.56;42.83;103021.06;5007214;28;20288;-71
2023/04/18 03:50:47;;;;;;;8.30;4.70;;;;;;;5.57;42.85;103030.59;5002191;28;20491;-70
2023/04/18 03:53:14;;;;;;;8.93;5.00;;;;;;;5.59;42.91;103028.88;5007724;28;20427;-70
2023/04/18 03:55:40;;;;;;;8.65;4.45;;;;;;;5.53;42.93;103026.22;5004056;28;20037;-70
2023/04/18 03:58:07;;;;;;;5.32;4.35;;;;;;;5.49;42.75;103030.47;5022895;28;20029;-70
2023/04/18 04:00:33;;;;;;;7.57;5.22;;;;;;;5.55;42.67;103029.72;5022128;28;20523;-69
2023/04/18 04:03:05;;;;;;;9.15;4.93;;;;;;;5.59;42.71;103037.56;5018163;28;20041;-70
2023/04/18 04:05:31;;;;;;;7.03;4.65;;;;;;;5.50;42.64;103034.81;4996383;28;20584;-70
2023/04/18 04:07:56;;;;;;;11.68;5.18;;;;;;;5.32;42.99;103025.00;5006130;28;20049;-71
2023/04/18 04:10:22;;;;;;;10.05;4.65;;;;;;;5.20;42.60;103025.69;5016104;28;20307;-70
2023/04/18 04:12:48;;;;;;;10.48;5.20;;;;;;;5.23;42.52;103030.94;4992378;28;20137;-70
2023/04/18 04:15:15;;;;;;;8.77;5.40;;;;;;;4.89;43.13;103031.19;5018740;28;20525;-70
2023/04/18 04:17:47;;;;;;;9.27;4.75;;;;;;;5.08;42.82;103034.97;5015353;28;20025;-69
2023/04/18 04:20:13;;;;;;;9.35;4.72;;;;;;;5.04;42.47;103028.88;5017682;28;20041;-69
2023/04/18 04:22:40;;;;;;;10.57;5.20;;;;;;;5.02;42.16;103035.75;5016319;28;20645;-70
2023/04/18 04:25:07;;;;;;;10.48;4.70;;;;;;;5.07;42.12;103035.81;5032629;28;20067;-70
2023/04/18 04:27:37;;;;;;;9.52;5.43;;;;;;;5.06;42.00;103034.94;5029143;28;20032;-70
2023/04/18 04:30:07;;;;;;;8.02;4.60;;;;;;;5.11;42.17;103030.72;5015840;28;20037;-69
2023/04/18 04:32:34;;;;;;;11.05;6.07;;;;;;;5.14;41.96;103030.75;5012860;28;20036;-70
2023/04/18 04:34:59;;;;;;;14.65;5.70;;;;;;;5.16;42.40;103039.44;5032755;28;20039;-71
2023/04/18 04:37:26;;;;;;;10.30;5.25;;;;;;;5.05;42.81;103035.78;5015266;28;20120;-70
2023/04/18 04:40:14;;;;;;;10.13;4.88;;;;;;;5.05;42.79;103035.78;5032421;28;20037;-68
2023/04/18 04:42:54;;;;;;;8.77;5.63;;;;;;;5.05;42.94;103043.56;5031353;28;22117;-70
2023/04/18 04:45:26;;;;;;;8.82;4.95;;;;;;;4.88;43.36;103042.38;5045965;28;20048;-70
2023/04/18 04:47:54;;;;;;;7.43;5.10;;;;;;;4.93;43.10;103040.75;5029725;28;20405;-70
2023/04/18 04:50:19;;;;;;;13.18;6.60;;;;;;;4.97;43.59;103045.16;5012669;28;20045;-71
2023/04/18 04:52:45;;;;;;;8.10;5.78;;;;;;;4.84;44.20;103039.69;5008504;28;20033;-70
2023/04/18 04:55:10;;;;;;;10.75;6.95;;;;;;;5.04;43.54;103044.41;5026442;28;20040;-70
2023/04/18 04:57:36;;;;;;;12.75;5.80;;;;;;;4.98;43.60;103046.88;5009733;28;20079;-69
2023/04/18 05:00:13;;;;;;;12.88;6.47;;;;;;;5.00;44.06;103050.38;5014224;28;20037;-69
2023/04/18 05:02:38;;;;;;;12.40;6.15;;;;;;;5.00;44.23;103051.25;5008256;28;20041;-71
2023/04/18 05:05:04;;;;;;;10.57;6.13;;;;;;;5.02;44.07;103052.16;5013188;28;20069;-70
2023/04/18 05:07:29;;;;;;;13.00;6.50;;;;;;;5.03;44.09;103047.84;5015183;28;20037;-70
2023/04/18 05:09:55;;;;;;;11.80;6.50;;;;;;;4.99;44.26;103054.69;4993504;28;20045;-70
2023/04/18 05:12:20;;;;;;;13.00;6.32;;;;;;;5.17;44.21;103043.78;5013145;28;20034;-70
2023/04/18 05:14:46;;;;;;;9.27;6.93;;;;;;;5.09;44.12;103052.28;5020575;28;20132;-70
2023/04/18 05:17:11;;;;;;;9.57;5.82;;;;;;;5.25;44.43;103052.56;5014002;28;20036;-70
2023/04/18 05:19:36;;;;;;;13.48;6.93;;;;;;;5.75;44.07;103061.13;5029169;28;20505;-70
2023/04/18 05:22:02;;;;;;;12.00;6.78;;;;;;;7.30;41.03;103058.69;5028258;28;20779;-69
2023/04/18 05:24:27;;;;;;;10.57;6.43;;;;;;;8.60;38.62;103055.13;5030752;28;20110;-70
2023/04/18 05:26:53;;;;;;;22.90;7.22;;;;;;;9.57;36.19;103055.28;5011813;28;20102;-70
2023/04/18 05:29:18;;;;;;;12.45;5.90;;;;;;;10.24;35.00;103049.06;5030149;28;20049;-70
2023/04/18 05:31:44;;;;;;;9.55;4.82;;;;;;;10.74;34.28;103049.69;5028442;28;20819;-70
2023/04/18 05:34:09;;;;;;;9.68;5.28;;;;;;;11.28;33.06;103041.47;5031927;28;20063;-70
2023/04/18 05:36:35;;;;;;;8.82;5.25;;;;;;;11.17;33.79;103046.78;5030318;28;20115;-69
2023/04/18 05:39:01;;;;;;;8.48;5.45;;;;;;;11.20;33.38;103044.16;5026967;28;20045;-71
2023/04/18 05:41:26;;;;;;;8.48;4.55;;;;;;;11.39;33.39;103052.72;5030237;28;20032;-69
2023/04/18 05:43:52;;;;;;;9.30;5.30;;;;;;;11.63;32.30;103054.25;5026962;28;20177;-70
2023/04/18 05:46:17;;;;;;;15.45;5.60;;;;;;;11.54;32.89;103056.97;5031333;28;20040;-71
2023/04/18 05:48:43;;;;;;;11.88;5.90;;;;;;;12.31;31.00;103058.75;5026023;28;20068;-70
2023/04/18 05:51:08;;;;;;;9.57;4.60;;;;;;;12.64;31.06;103052.19;5033453;28;20119;-71
2023/04/18 05:53:33;;;;;;;6.53;4.78;;;;;;;13.36;29.67;103056.38;5028378;28;20151;-69
2023/04/18 05:55:59;;;;;;;9.18;4.70;;;;;;;13.40;29.26;103060.66;5032124;28;20072;-70
2023/04/18 05:58:24;;;;;;;10.77;4.55;;;;;;;13.68;29.03;103060.22;5027241;28;20086;-70
2023/04/18 06:00:52;;;;;;;10.50;4.88;;;;;;;13.21;28.47;103056.63;5010032;28;20025;-70
2023/04/18 06:03:17;;;;;;;9.48;5.10;;;;;;;13.19;28.95;103063.66;5014668;28;20432;-70
2023/04/18 06:05:43;;;;;;;8.57;5.43;;;;;;;13.27;28.64;103053.88;5009801;28;20304;-71
2023/04/18 06:08:08;;;;;;;11.32;4.75;;;;;;;12.93;28.74;103054.44;5023294;28;20041;-71
2023/04/18 06:10:34;;;;;;;8.05;4.95;;;;;;;12.98;28.10;103063.13;5009407;28;20952;-70
2023/04/18 06:13:00;;;;;;;7.75;4.95;;;;;;;13.21;27.43;103059.25;5012101;28;20045;-70
2023/04/18 06:15:25;;;;;;;9.43;5.90;;;;;;;14.02;26.60;103065.69;5006725;28;20037;-69
2023/04/18 06:17:51;;;;;;;12.88;5.10;;;;;;;13.96;25.98;103057.06;5000474;28;20128;-70
2023/04/18 06:20:16;;;;;;;6.60;4.80;;;;;;;13.90;26.44;103066.81;5008279;28;20522;-70
2023/04/18 06:22:41;;;;;;;7.93;4.45;;;;;;;14.64;25.22;103060.03;5009438;28;20053;-69
2023/04/18 06:25:08;;;;;;;8.40;5.30;;;;;;;14.84;24.29;103066.63;5008947;28;20576;-69
2023/04/18 06:27:35;;;;;;;7.43;4.85;;;;;;;15.04;24.24;103061.72;5006081;28;20420;-68
2023/04/18 06:30:00;;;;;;;6.97;4.68;;;;;;;15.00;23.81;103064.47;5009297;28;20406;-69
2023/04/18 06:32:25;;;;;;;12.90;5.10;;;;;;;15.01;23.49;103063.56;5009084;28;20032;-70
2023/04/18 06:34:51;;;;;;;7.03;4.60;;;;;;;15.10;22.91;103068.59;4988964;28;20109;-70
2023/04/18 06:37:17;;;;;;;6.97;4.72;;;;;;;14.85;23.67;103070.97;5009350;28;20100;-70
2023/04/18 06:39:43;;;;;;;5.60;4.60;;;;;;;14.61;23.68;103085.53;4991043;28;20383;-70
2023/04/18 06:42:08;;;;;;;7.60;5.70;;;;;;;15.21;23.19;103081.50;5009935;28;20056;-69
2023/04/18 06:44:42;;;;;;;7.68;5.43;;;;;;;15.08;22.91;103084.47;4992148;28;20259;-69
2023/04/18 06:47:09;;;;;;;9.57;5.65;;;;;;;14.30;23.76;103079.16;5009212;28;20609;-70
2023/04/18 06:49:35;;;;;;;10.00;5.40;;;;;;;13.94;24.15;103081.63;4987025;28;20599;-69
2023/04/18 06:52:00;;;;;;;7.10;4.85;;;;;;;14.28;23.97;103086.22;5008816;28;20033;-70
2023/04/18 06:54:25;;;;;;;9.07;5.32;;;;;;;15.54;22.73;103079.84;5002369;28;20034;-70
2023/04/18 06:57:02;;;;;;;8.20;5.15;;;;;;;15.69;22.74;103092.59;5007010;28;20390;-71
2023/04/18 06:59:34;;;;;;;8.73;5.57;;;;;;;15.40;22.41;103088.09;5008628;28;20053;-70
2023/04/18 07:02:00;;;;;;;5.93;5.22;;;;;;;14.27;23.90;103096.75;5006203;28;20025;-69
2023/04/18 07:04:25;;;;;;;6.32;5.35;;;;;;;14.83;23.32;103101.72;5010043;28;20372;-69
2023/04/18 07:06:51;;;;;;;9.80;5.20;;;;;;;14.47;23.35;103101.63;5007743;28;20297;-69
2023/04/18 07:09:16;;;;;;;6.40;5.75;;;;;;;14.63;23.43;103100.38;5008131;28;20073;-70
2023/04/18 07:11:42;;;;;;;9.30;5.10;;;;;;;14.82;23.23;103097.38;5008806;28;20485;-69
2023/04/18 07:14:07;;;;;;;6.85;4.97;;;;;;;15.47;22.26;103094.06;5003087;28;20470;-69
2023/04/18 07:16:33;;;;;;;7.97;5.10;;;;;;;15.33;22.27;103097.94;5007409;28;20033;-69
2023/04/18 07:18:58;;;;;;;6.80;4.75;;;;;;;15.43;22.34;103098.53;5009483;28;20430;-70
2023/04/18 07:21:24;;;;;;;12.43;5.88;;;;;;;14.85;23.10;103105.19;4993121;28;20029;-68
2023/04/18 07:23:49;;;;;;;6.70;5.20;;;;;;;15.81;22.48;103099.31;5006286;28;20052;-70
2023/04/18 07:26:15;;;;;;;8.25;5.32;;;;;;;15.40;22.84;103109.19;5011360;28;20029;-69
2023/04/18 07:28:40;;;;;;;8.15;5.40;;;;;;;15.14;22.38;103113.25;5006639;28;20049;-69
2023/04/18 07:31:10;;;;;;;7.93;5.57;;;;;;;15.77;22.55;103113.47;5004767;28;20564;-69
2023/04/18 07:33:36;;;;;;;9.50;5.03;;;;;;;16.00;22.54;103100.59;5008174;28;20038;-70
2023/04/18 07:36:02;;;;;;;9.00;5.63;;;;;;;16.96;21.57;103101.28;5007221;28;20014;-70
2023/04/18 07:38:27;;;;;;;11.90;5.53;;;;;;;17.30;20.75;103104.59;5006525;28;20334;-70
2023/04/18 07:41:00;;;;;;;10.35;5.22;;;;;;;17.25;20.37;103099.47;5008261;28;20045;-69
2023/04/18 07:43:26;;;;;;;8.93;5.53;;;;;;;16.80;20.77;103100.00;5006997;28;20029;-70
2023/04/18 07:45:52;;;;;;;9.02;4.95;;;;;;;16.79;21.63;103099.16;5006617;28;20075;-70
2023/04/18 07:48:20;;;;;;;8.48;5.68;;;;;;;16.36;21.77;103097.78;5005915;28;20061;-69
2023/04/18 07:50:47;;;;;;;7.82;5.47;;;;;;;17.02;21.22;103103.72;5007755;28;20109;-70
2023/04/18 07:53:13;;;;;;;6.60;4.57;;;;;;;17.67;20.58;103104.25;5007275;28;20033;-70
2023/04/18 07:55:38;;;;;;;6.95;4.65;;;;;;;17.60;20.64;103106.25;5008620;28;20386;-69
2023/04/18 07:58:04;;;;;;;7.85;5.43;;;;;;;18.14;20.21;103098.13;5008964;28;20059;-69
2023/04/18 08:00:31;;;;;;;11.57;5.00;;;;;;;17.50;20.70;103104.81;5006109;28;20045;-70
2023/04/18 08:02:57;;;;;;;8.45;4.65;;;;;;;17.68;20.56;103099.81;5002846;28;20087;-70
2023/04/18 08:05:23;;;;;;;9.85;5.88;;;;;;;17.34;20.99;103101.81;5007320;28;20506;-69
2023/04/18 08:07:49;;;;;;;11.70;6.18;;;;;;;17.38;21.02;103097.25;5007698;28;20813;-70
2023/04/18 08:10:14;;;;;;;8.75;5.00;;;;;;;18.13;20.48;103093.78;5007643;28;20053;-69
2023/04/18 08:12:40;;;;;;;5.93;4.85;;;;;;;17.51;20.84;103101.25;5004798;28;20026;-69
2023/04/18 08:15:06;;;;;;;8.57;5.22;;;;;;;17.13;21.34;103092.78;5008104;28;20462;-70
2023/04/18 08:17:31;;;;;;;7.45;4.90;;;;;;;16.94;21.75;103100.47;5007072;28;20436;-69
2023/04/18 08:19:57;;;;;;;7.03;4.70;;;;;;;17.95;21.88;103101.47;5006435;28;20121;-70
2023/04/18 08:22:23;;;;;;;7.38;4.95;;;;;;;18.72;19.90;103095.97;5007046;28;21316;-69
2023/04/18 08:24:48;;;;;;;8.98;5.28;;;;;;;18.63;20.36;103099.81;5008191;28;20105;-70
2023/04/18 08:27:17;;;;;;;8.27;5.53;;;;;;;17.95;20.83;103090.03;5005631;28;20041;-70
2023/04/18 08:29:42;;;;;;;12.65;4.63;;;;;;;17.64;21.46;103091.97;5008347;28;20048;-70
2023/04/18 08:32:08;;;;;;;9.93;4.47;;;;;;;16.87;22.27;103096.28;4989577;28;20473;-69
2023/04/18 08:34:36;;;;;;;10.77;4.00;;;;;;;16.99;22.10;103095.03;5005093;28;20499;-70
2023/04/18 08:37:02;;;;;;;9.40;4.60;;;;;;;16.62;22.86;103104.06;5008408;28;20104;-70
2023/04/18 08:39:28;;;;;;;9.15;4.20;;;;;;;17.69;21.67;103098.88;5006929;28;20045;-70
2023/04/18 08:41:58;;;;;;;8.45;4.50;;;;;;;16.93;22.11;103104.00;5009360;28;20049;-69
2023/04/18 08:44:26;;;;;;;6.35;4.18;;;;;;;16.72;22.67;103102.88;5008109;28;20041;-70
2023/04/18 08:46:52;;;;;;;4.70;3.85;;;;;;;17.35;21.85;103103.50;5012434;28;20056;-69
2023/04/18 08:49:21;;;;;;;10.13;4.07;;;;;;;16.71;22.39;103114.38;5008568;28;20479;-70
2023/04/18 08:51:51;;;;;;;6.07;3.78;;;;;;;15.55;23.80;103114.06;5007131;28;20041;-70
2023/04/18 08:54:18;;;;;;;6.75;3.90;;;;;;;15.96;24.39;103109.44;5007242;28;20323;-70
2023/04/18 08:56:44;;;;;;;7.38;3.95;;;;;;;16.35;23.76;103104.00;5013517;28;20164;-70
2023/04/18 08:59:10;;;;;;;7.03;4.15;;;;;;;15.90;24.03;103109.59;5020101;28;20387;-70
2023/04/18 09:01:55;;;;;;;4.90;3.60;;;;;;;15.86;23.65;103107.97;5017825;28;20113;-69
2023/04/18 09:04:47;;;;;;;8.13;3.92;;;;;;;14.81;25.19;103108.78;5016327;28;20047;-68
2023/04/18 09:07:15;;;;;;;8.55;5.15;;;;;;;13.94;26.52;103121.06;5013921;28;21038;-71
2023/04/18 09:09:40;;;;;;;6.00;3.85;;;;;;;13.09;27.01;103108.44;5012640;28;20033;-71
2023/04/18 09:12:07;;;;;;;4.20;2.70;;;;;;;12.49;28.63;103117.13;5010688;28;20457;-71
2023/04/18 09:14:41;;;;;;;4.32;3.80;;;;;;;13.21;27.69;103111.78;5016146;28;20038;-71
2023/04/18 09:17:08;;;;;;;10.80;4.22;;;;;;;13.38;27.41;103109.72;5001992;28;20069;-71
2023/04/18 09:19:33;;;;;;;8.32;3.83;;;;;;;13.61;26.74;103111.16;5019246;28;20114;-70
2023/04/18 09:22:01;;;;;;;5.78;3.80;;;;;;;13.92;27.13;103114.97;5027249;28;20028;-70
2023/04/18 09:24:27;;;;;;;4.95;3.28;;;;;;;13.33;26.74;103107.19;5032168;28;20041;-71
2023/04/18 09:26:55;;;;;;;6.03;3.75;;;;;;;13.50;27.41;103109.53;5019695;28;20099;-71
2023/04/18 09:29:45;;;;;;;7.55;3.38;;;;;;;13.77;26.70;103109.97;5026487;28;20040;-71
2023/04/18 09:32:18;;;;;;;5.05;3.60;;;;;;;13.30;28.09;103111.63;5030378;28;20533;-71
2023/04/18 09:34:44;;;;;;;5.03;2.78;;;;;;;13.55;27.62;103116.47;5028338;28;20123;-69
2023/04/18 09:37:13;;;;;;;7.32;3.58;;;;;;;13.23;27.83;103112.63;5029974;28;20128;-70
2023/04/18 09:39:41;;;;;;;9.48;2.85;;;;;;;13.60;27.46;103120.78;5021052;28;20473;-71
2023/04/18 09:42:07;;;;;;;5.70;3.45;;;;;;;13.52;27.56;103123.50;5028298;28;20040;-71
2023/04/18 09:44:33;;;;;;;6.25;2.72;;;;;;;12.64;28.66;103110.78;5030625;28;20028;-70
2023/04/18 09:46:59;;;;;;;4.05;3.17;;;;;;;13.19;27.76;103118.81;5030937;28;20489;-71
2023/04/18 09:49:26;;;;;;;5.80;3.00;;;;;;;12.97;28.39;103121.75;5030348;28;20045;-71
2023/04/18 09:51:53;;;;;;;7.05;2.58;;;;;;;12.88;28.23;103124.50;5029502;28;20543;-72
2023/04/18 09:54:22;;;;;;;6.70;3.17;;;;;;;12.74;28.00;103122.06;5025762;28;21048;-71
2023/04/18 09:56:49;;;;;;;5.93;3.05;;;;;;;13.31;27.54;103115.97;5031574;28;20036;-71
2023/04/18 09:59:39;;;;;;;4.00;2.63;;;;;;;13.75;27.29;103113.53;5026496;28;20049;-71
2023/04/18 10:02:14;;;;;;;5.13;2.53;;;;;;;13.62;27.97;103115.50;5029436;28;20056;-70
2023/04/18 10:04:41;;;;;;;4.00;2.78;;;;;;;14.01;27.75;103106.03;5030720;28;20445;-71
2023/04/18 10:07:06;;;;;;;6.68;3.05;;;;;;;14.21;28.09;103108.28;5028427;28;20032;-70
2023/04/18 10:09:33;;;;;;;4.53;3.45;;;;;;;14.37;27.11;103114.09;5027773;28;20505;-73
2023/04/18 10:12:01;;;;;;;7.32;3.60;;;;;;;14.67;26.91;103109.97;5032088;28;20114;-70
2023/04/18 10:14:29;;;;;;;5.03;3.35;;;;;;;14.22;26.99;103107.38;5025300;28;20033;-71
2023/04/18 10:16:56;;;;;;;23.88;6.82;;;;;;;13.37;28.19;103110.63;5046728;28;20475;-70
2023/04/18 10:19:24;;;;;;;7.32;4.25;;;;;;;13.79;27.70;103107.34;5027513;28;20056;-70
2023/04/18 10:21:54;;;;;;;14.15;4.32;;;;;;;13.40;28.05;103113.19;5008569;28;20612;-72
2023/04/18 10:24:48;;;;;;;7.18;4.18;;;;;;;13.95;27.60;103111.41;5015397;28;20046;-71
2023/04/18 10:27:38;;;;;;;16.17;6.07;;;;;;;12.67;28.98;103104.66;5003637;28;20037;-71
2023/04/18 10:30:04;;;;;;;7.38;3.45;;;;;;;13.61;28.40;103108.53;5013316;28;20072;-70
2023/04/18 10:32:29;;;;;;;8.77;3.17;;;;;;;13.69;28.05;103102.22;5010712;28;20112;-70
2023/04/18 10:34:55;;;;;;;6.10;3.30;;;;;;;13.60;27.74;103104.16;5006254;28;20402;-71
2023/04/18 10:37:20;;;;;;;7.47;3.92;;;;;;;13.39;28.17;103108.84;5009135;28;20401;-71
2023/04/18 10:39:49;;;;;;;9.02;3.70;;;;;;;13.19;27.97;103103.91;5008041;28;20494;-71
2023/04/18 10:42:14;;;;;;;6.05;3.33;;;;;;;13.65;28.53;103100.56;5006607;28;20037;-70
2023/04/18 10:44:40;;;;;;;5.68;3.72;;;;;;;13.08;28.02;103101.44;5009319;28;20037;-70
2023/04/18 10:47:08;;;;;;;6.45;3.58;;;;;;;13.25;28.93;103103.81;5008406;28;20120;-71
2023/04/18 10:49:35;;;;;;;5.15;4.15;;;;;;;13.38;28.93;103098.34;5007637;28;20157;-70
2023/04/18 10:52:06;;;;;;;5.40;3.03;;;;;;;13.87;28.60;103092.28;5010993;28;20137;-71
2023/04/18 10:54:53;;;;;;;13.43;4.57;;;;;;;14.31;27.73;103083.50;5006589;28;20156;-70
2023/04/18 10:57:19;;;;;;;9.88;4.07;;;;;;;14.34;27.48;103096.63;5007793;28;20041;-70
2023/04/18 10:59:49;;;;;;;10.57;4.63;;;;;;;13.49;28.09;103091.16;4994471;28;20037;-71
2023/04/18 11:02:28;;;;;;;13.93;5.57;;;;;;;13.00;29.35;103089.31;5008439;28;20509;-70
2023/04/18 11:04:56;;;;;;;9.75;5.50;;;;;;;12.31;29.98;103100.72;5007008;28;20132;-70
2023/04/18 11:07:38;;;;;;;6.88;4.97;;;;;;;12.86;29.63;103094.78;5006504;28;20044;-70
2023/04/18 11:10:16;;;;;;;6.55;5.15;;;;;;;13.32;29.11;103091.47;5009584;28;20149;-69
2023/04/18 11:12:41;;;;;;;10.48;5.07;;;;;;;13.56;28.69;103091.94;5007273;28;20044;-71
2023/04/18 11:15:13;;;;;;;9.38;5.68;;;;;;;13.98;28.40;103081.56;5007071;28;20376;-70
2023/04/18 11:17:39;;;;;;;34.58;8.18;;;;;;;13.69;29.24;103085.59;5008655;28;20083;-72
2023/04/18 11:20:08;;;;;;;9.30;6.30;;;;;;;13.91;27.22;103084.28;4993169;28;20049;-71
2023/04/18 11:22:44;;;;;;;9.90;5.50;;;;;;;13.90;28.10;103077.31;5006055;28;20021;-71
2023/04/18 11:25:10;;;;;;;10.48;6.65;;;;;;;14.39;28.03;103079.84;5008325;28;20068;-70
2023/04/18 11:27:35;;;;;;;13.93;6.00;;;;;;;14.69;28.80;103079.22;4990329;28;20282;-70
2023/04/18 11:30:00;;;;;;;17.85;7.32;;;;;;;15.12;28.20;103072.94;5000512;28;20595;-71